KHWD/HWD METAR and TAF weather

Enter ICAO airport designator
Station Type Date Time Source
KHWD METAR 2021/07/24 19:54 UTC NOAA

KHWD 241954Z 27008KT 10SM CLR 22/13 A2998 RMK AO2 SLP161 T02220128


Station Type Date Time Source
KHWD Decoded METAR 2021/07/24 19:54 UTC NOAA

HAYWARD AIR TERMINAL, CA, United States (KHWD) 37-40N 122-07W 21M
Jul 24, 2021 - 03:54 PM EDT / 2021.07.24 1954 UTC
Wind: from the W (270 degrees) at 9 MPH (8 KT):0
Visibility: 10 mile(s):0
Sky conditions: clear
Temperature: 72.0 F (22.2 C)
Dew Point: 55.0 F (12.8 C)
Relative Humidity: 55%
Pressure (altimeter): 29.98 in. Hg (1015 hPa)
ob: KHWD 241954Z 27008KT 10SM CLR 22/13 A2998 RMK AO2 SLP161 T02220128
cycle: 20

Station Type Date Time Source
KHWD TAF UTC NOAA

Error!

Example: see airport list